createdAt,value
2023-04-30T00:02:15.829Z,80.60
2023-04-30T00:04:45.666Z,80.80
2023-04-30T00:07:14.402Z,80.50
2023-04-30T00:09:42.800Z,80.60
2023-04-30T00:12:11.075Z,80.90
2023-04-30T00:14:39.288Z,80.50
2023-04-30T00:17:07.476Z,80.80
2023-04-30T00:19:35.679Z,80.40
2023-04-30T00:22:05.523Z,80.00
2023-04-30T00:24:33.747Z,80.40
2023-04-30T00:27:02.017Z,80.70
2023-04-30T00:29:30.268Z,80.50
2023-04-30T00:31:58.526Z,81.20
2023-04-30T00:34:26.768Z,81.50
2023-04-30T00:36:54.948Z,81.70
2023-04-30T00:39:24.486Z,81.70
2023-04-30T00:41:52.702Z,81.60
2023-04-30T00:44:20.870Z,81.80
2023-04-30T00:46:49.048Z,81.90
2023-04-30T00:49:17.396Z,82.10
2023-04-30T00:51:46.597Z,82.20
2023-04-30T00:54:14.883Z,82.10
2023-04-30T00:56:44.490Z,82.20
2023-04-30T00:59:14.091Z,81.80
2023-04-30T01:01:42.982Z,82.40
2023-04-30T01:04:11.924Z,82.30
2023-04-30T01:06:40.304Z,82.20
2023-04-30T01:09:08.784Z,82.00
2023-04-30T01:11:51.203Z,82.30
2023-04-30T01:14:29.007Z,82.30
2023-04-30T01:17:06.713Z,81.20
2023-04-30T01:19:46.731Z,81.10
2023-04-30T01:22:33.199Z,81.60
2023-04-30T01:25:29.962Z,82.10
2023-04-30T01:28:10.724Z,82.50
2023-04-30T01:30:41.645Z,81.90
2023-04-30T01:33:09.835Z,81.80
2023-04-30T01:36:07.018Z,82.30
2023-04-30T01:38:56.266Z,82.90
2023-04-30T01:41:34.803Z,82.70
2023-04-30T01:44:22.668Z,82.80
2023-04-30T01:47:05.914Z,82.80
2023-04-30T01:49:45.171Z,83.00
2023-04-30T01:52:22.592Z,82.80
2023-04-30T01:54:57.043Z,83.10
2023-04-30T01:57:30.977Z,83.40
2023-04-30T02:00:00.577Z,83.40
2023-04-30T02:02:28.888Z,83.40
2023-04-30T02:04:57.225Z,83.30
2023-04-30T02:07:39.276Z,83.80
2023-04-30T02:10:09.178Z,83.40
2023-04-30T02:12:37.469Z,83.10
2023-04-30T02:15:09.004Z,83.60
2023-04-30T02:17:37.253Z,83.80
2023-04-30T02:20:07.185Z,84.10
2023-04-30T02:22:35.400Z,83.40
2023-04-30T02:25:03.777Z,83.40
2023-04-30T02:27:33.720Z,83.50
2023-04-30T02:30:02.596Z,83.60
2023-04-30T02:32:32.267Z,83.70
2023-04-30T02:35:00.896Z,84.10
2023-04-30T02:37:29.106Z,83.50
2023-04-30T02:39:58.230Z,83.50
2023-04-30T02:42:26.476Z,82.90
2023-04-30T02:44:54.638Z,82.80
2023-04-30T02:47:22.886Z,83.00
2023-04-30T02:49:52.973Z,83.10
2023-04-30T02:52:21.433Z,83.50
2023-04-30T02:54:50.010Z,83.70
2023-04-30T02:57:18.180Z,83.40
2023-04-30T02:59:46.456Z,83.20
2023-04-30T03:02:14.754Z,83.40
2023-04-30T03:04:42.985Z,83.50
2023-04-30T03:07:12.566Z,83.80
2023-04-30T03:09:40.740Z,84.00
2023-04-30T03:12:08.991Z,84.50
2023-04-30T03:14:37.527Z,84.10
2023-04-30T03:17:05.925Z,83.70
2023-04-30T03:19:34.256Z,83.90
2023-04-30T03:22:02.496Z,84.10
2023-04-30T03:24:32.006Z,84.00
2023-04-30T03:27:00.175Z,83.60
2023-04-30T03:29:28.372Z,84.20
2023-04-30T03:31:57.409Z,83.90
2023-04-30T03:34:25.649Z,84.00
2023-04-30T03:36:53.867Z,84.20
2023-04-30T03:39:22.023Z,84.40
2023-04-30T03:41:51.561Z,84.60
2023-04-30T03:44:19.704Z,84.70
2023-04-30T03:46:47.891Z,85.00
2023-04-30T03:49:16.328Z,85.10
2023-04-30T03:51:44.508Z,85.30
2023-04-30T03:54:12.681Z,85.00
2023-04-30T03:56:41.224Z,84.90
2023-04-30T03:59:10.802Z,84.80
2023-04-30T04:01:39.118Z,84.90
2023-04-30T04:04:07.948Z,84.80
2023-04-30T04:06:36.113Z,84.70
2023-04-30T04:09:05.763Z,84.80
2023-04-30T04:11:34.237Z,84.80
2023-04-30T04:14:02.400Z,84.90
2023-04-30T04:16:32.058Z,85.20
2023-04-30T04:19:00.921Z,85.10
2023-04-30T04:21:29.146Z,85.10
2023-04-30T04:23:57.303Z,85.20
2023-04-30T04:26:25.684Z,84.70
2023-04-30T04:28:54.003Z,84.50
2023-04-30T04:31:22.675Z,85.00
2023-04-30T04:33:58.107Z,85.20
2023-04-30T04:36:27.616Z,85.70
2023-04-30T04:38:57.658Z,86.00
2023-04-30T04:41:26.654Z,86.20
2023-04-30T04:43:54.851Z,86.30
2023-04-30T04:46:23.261Z,86.20
2023-04-30T04:48:53.129Z,86.20
2023-04-30T04:51:21.540Z,86.60
2023-04-30T04:53:49.758Z,86.90
2023-04-30T04:56:18.189Z,86.90
2023-04-30T04:58:46.809Z,86.90
2023-04-30T05:01:15.375Z,87.10
2023-04-30T05:03:43.700Z,86.90
2023-04-30T05:06:13.355Z,87.30
2023-04-30T05:08:41.645Z,87.10
2023-04-30T05:11:10.305Z,87.00
2023-04-30T05:13:38.588Z,87.20
2023-04-30T05:16:07.316Z,88.00
2023-04-30T05:18:35.538Z,88.10
2023-04-30T05:21:04.374Z,87.60
2023-04-30T05:23:33.967Z,87.50
2023-04-30T05:26:02.403Z,87.10
2023-04-30T05:28:30.703Z,86.90
2023-04-30T05:30:58.839Z,86.20
2023-04-30T05:33:27.415Z,85.70
2023-04-30T05:35:55.664Z,84.40
2023-04-30T05:38:23.978Z,84.40
2023-04-30T05:40:53.486Z,83.70
2023-04-30T05:43:21.653Z,83.80
2023-04-30T05:45:49.835Z,84.00
2023-04-30T05:48:18.095Z,84.20
2023-04-30T05:50:46.374Z,84.30
2023-04-30T05:53:15.212Z,84.00
2023-04-30T05:55:43.513Z,83.80
2023-04-30T05:58:13.059Z,84.10
2023-04-30T06:00:41.264Z,83.60
2023-04-30T06:03:09.558Z,83.50
2023-04-30T06:05:37.787Z,83.40
2023-04-30T06:08:06.212Z,83.20
2023-04-30T06:10:34.454Z,82.90
2023-04-30T06:13:02.659Z,82.80
2023-04-30T06:15:32.355Z,82.90
2023-04-30T06:18:00.587Z,82.90
2023-04-30T06:20:28.896Z,82.30
2023-04-30T06:22:57.072Z,81.60
2023-04-30T06:25:25.340Z,81.50
2023-04-30T06:27:54.180Z,81.50
2023-04-30T06:30:22.660Z,80.90
2023-04-30T06:32:52.280Z,80.40
2023-04-30T06:35:20.653Z,79.70
2023-04-30T06:37:48.848Z,79.70
2023-04-30T06:40:17.158Z,79.40
2023-04-30T06:42:47.501Z,78.00
2023-04-30T06:45:16.138Z,78.50
2023-04-30T06:47:46.212Z,78.30
2023-04-30T06:50:15.991Z,77.70
2023-04-30T06:52:44.378Z,77.40
2023-04-30T06:55:12.903Z,77.60
2023-04-30T06:57:41.208Z,76.90
2023-04-30T07:00:10.852Z,77.00
2023-04-30T07:02:39.758Z,75.70
2023-04-30T07:05:09.150Z,75.30
2023-04-30T07:07:38.722Z,75.60
2023-04-30T07:10:08.518Z,75.40
2023-04-30T07:12:36.663Z,74.50
2023-04-30T07:15:05.541Z,74.80
2023-04-30T07:17:33.901Z,73.70
2023-04-30T07:20:05.905Z,73.90
2023-04-30T07:22:34.105Z,73.10
2023-04-30T07:25:03.757Z,73.30
2023-04-30T07:27:31.917Z,72.70
2023-04-30T07:30:00.269Z,71.90
2023-04-30T07:32:28.511Z,72.10
2023-04-30T07:34:56.961Z,70.40
2023-04-30T07:37:25.225Z,70.90
2023-04-30T07:39:53.584Z,72.00
2023-04-30T07:42:23.407Z,70.30
2023-04-30T07:44:52.850Z,71.60
2023-04-30T07:47:21.110Z,70.70
2023-04-30T07:49:50.063Z,70.60
2023-04-30T07:52:18.423Z,70.30
2023-04-30T07:54:46.558Z,69.40
2023-04-30T07:57:14.808Z,68.70
2023-04-30T07:59:44.369Z,69.00
2023-04-30T08:02:12.637Z,68.20
2023-04-30T08:04:40.943Z,68.60
2023-04-30T08:07:09.114Z,68.00
2023-04-30T08:09:37.245Z,66.90
2023-04-30T08:12:06.201Z,66.30
2023-04-30T08:14:34.594Z,66.10
2023-04-30T08:17:04.387Z,66.20
2023-04-30T08:19:32.845Z,66.10
2023-04-30T08:22:01.725Z,65.40
2023-04-30T08:24:29.879Z,65.30
2023-04-30T08:26:58.996Z,66.10
2023-04-30T08:29:27.807Z,64.60
2023-04-30T08:31:56.694Z,64.40
2023-04-30T08:34:26.322Z,63.90
2023-04-30T08:36:54.495Z,63.20
2023-04-30T08:39:22.687Z,61.60
2023-04-30T08:41:56.784Z,63.20
2023-04-30T08:44:25.175Z,62.10
2023-04-30T08:46:56.324Z,61.90
2023-04-30T08:49:28.201Z,61.80
2023-04-30T08:51:56.743Z,61.60
2023-04-30T08:54:27.515Z,61.20
2023-04-30T08:56:56.486Z,62.40
2023-04-30T08:59:24.716Z,61.00
2023-04-30T09:01:53.972Z,61.20
2023-04-30T09:04:22.497Z,61.50
2023-04-30T09:06:58.822Z,60.70
2023-04-30T09:09:30.822Z,60.10
2023-04-30T09:12:22.862Z,60.30
2023-04-30T09:15:01.552Z,60.50
2023-04-30T09:17:30.747Z,60.60
2023-04-30T09:20:09.729Z,62.00
2023-04-30T09:22:41.137Z,60.30
2023-04-30T09:25:11.262Z,62.40
2023-04-30T09:27:39.484Z,62.00
2023-04-30T09:30:09.714Z,61.00
2023-04-30T09:32:37.921Z,60.90
2023-04-30T09:35:07.178Z,61.80
2023-04-30T09:37:40.796Z,62.70
2023-04-30T09:40:11.720Z,61.40
2023-04-30T09:42:40.084Z,60.80
2023-04-30T09:45:12.389Z,60.60
2023-04-30T09:47:41.517Z,60.60
2023-04-30T09:50:14.780Z,59.60
2023-04-30T09:52:54.088Z,59.70
2023-04-30T09:55:23.548Z,59.90
2023-04-30T09:57:51.887Z,59.00
2023-04-30T10:00:21.241Z,59.30
2023-04-30T10:02:50.058Z,57.20
2023-04-30T10:05:19.147Z,57.20
2023-04-30T10:07:48.734Z,57.00
2023-04-30T10:10:17.703Z,57.50
2023-04-30T10:12:52.334Z,58.20
2023-04-30T10:15:26.977Z,56.20
2023-04-30T10:18:04.716Z,55.60
2023-04-30T10:20:36.536Z,56.50
2023-04-30T10:23:07.159Z,55.80
2023-04-30T10:25:35.666Z,55.80
2023-04-30T10:28:04.934Z,55.20
2023-04-30T10:30:33.845Z,54.30
2023-04-30T10:33:16.442Z,55.40
2023-04-30T10:35:50.931Z,54.30
2023-04-30T10:38:25.070Z,54.50
2023-04-30T10:40:58.073Z,54.20
2023-04-30T10:43:26.558Z,54.00
2023-04-30T10:45:54.876Z,53.70
2023-04-30T10:48:26.740Z,54.50
2023-04-30T10:50:58.154Z,55.60
2023-04-30T10:53:32.005Z,56.50
2023-04-30T10:56:06.564Z,54.60
2023-04-30T10:58:36.881Z,53.40
2023-04-30T11:01:08.577Z,54.50
2023-04-30T11:03:38.210Z,54.70
2023-04-30T11:06:12.766Z,54.80
2023-04-30T11:08:47.031Z,53.40
2023-04-30T11:11:22.092Z,53.70
2023-04-30T11:14:01.841Z,53.90
2023-04-30T11:16:31.561Z,54.40
2023-04-30T11:19:09.487Z,54.90
2023-04-30T11:21:42.219Z,56.40
2023-04-30T11:24:11.801Z,56.10
2023-04-30T11:27:05.520Z,53.70
2023-04-30T11:29:33.910Z,54.30
2023-04-30T11:32:02.732Z,54.40
2023-04-30T11:34:31.922Z,55.80
2023-04-30T11:37:01.045Z,54.40
2023-04-30T11:39:33.425Z,55.30
2023-04-30T11:42:03.991Z,56.00
2023-04-30T11:44:32.443Z,54.80
2023-04-30T11:47:01.537Z,55.30
2023-04-30T11:49:29.884Z,54.40
2023-04-30T11:51:58.108Z,55.20
2023-04-30T11:54:26.326Z,55.90
2023-04-30T11:57:02.171Z,55.50
2023-04-30T11:59:30.798Z,55.30
2023-04-30T12:01:59.311Z,55.10
2023-04-30T12:04:28.565Z,55.30
2023-04-30T12:06:56.865Z,53.60
2023-04-30T12:09:25.110Z,53.90
2023-04-30T12:11:53.281Z,53.60
2023-04-30T12:14:26.404Z,55.00
2023-04-30T12:16:54.879Z,54.90
2023-04-30T12:19:25.265Z,54.20
2023-04-30T12:21:55.247Z,53.30
2023-04-30T12:24:23.771Z,53.80
2023-04-30T12:26:55.265Z,54.40
2023-04-30T12:29:25.650Z,55.00
2023-04-30T12:31:55.524Z,54.20
2023-04-30T12:34:28.416Z,55.30
2023-04-30T12:36:59.929Z,54.00
2023-04-30T12:39:35.354Z,53.80
2023-04-30T12:42:04.788Z,54.10
2023-04-30T12:44:45.292Z,54.50
2023-04-30T12:47:14.322Z,55.40
2023-04-30T12:49:42.958Z,54.40
2023-04-30T12:52:14.012Z,53.70
2023-04-30T12:54:42.444Z,54.00
2023-04-30T12:57:12.328Z,53.80
2023-04-30T12:59:59.307Z,52.60
2023-04-30T13:02:31.321Z,54.70
2023-04-30T13:05:00.791Z,54.00
2023-04-30T13:07:39.636Z,53.40
2023-04-30T13:10:08.822Z,53.10
2023-04-30T13:12:36.977Z,53.40
2023-04-30T13:15:08.323Z,53.00
2023-04-30T13:17:36.529Z,53.00
2023-04-30T13:20:05.392Z,52.40
2023-04-30T13:22:33.534Z,53.50
2023-04-30T13:25:01.671Z,53.60
2023-04-30T13:27:29.880Z,53.00
2023-04-30T13:29:58.317Z,52.90
2023-04-30T13:32:28.161Z,53.60
2023-04-30T13:34:56.720Z,52.20
2023-04-30T13:37:25.158Z,52.10
2023-04-30T13:39:53.651Z,51.80
2023-04-30T13:42:22.062Z,52.40
2023-04-30T13:44:50.444Z,51.90
2023-04-30T13:47:18.634Z,52.40
2023-04-30T13:49:48.165Z,51.00
2023-04-30T13:52:16.402Z,53.40
2023-04-30T13:54:44.589Z,53.00
2023-04-30T13:57:12.989Z,53.50
2023-04-30T13:59:41.214Z,53.80
2023-04-30T14:02:09.629Z,51.20
2023-04-30T14:04:38.082Z,51.50
2023-04-30T14:07:07.646Z,51.00
2023-04-30T14:09:35.898Z,49.80
2023-04-30T14:12:05.060Z,51.00
2023-04-30T14:14:33.289Z,50.70
2023-04-30T14:17:02.011Z,52.20
2023-04-30T14:19:30.357Z,51.50
2023-04-30T14:21:58.538Z,50.60
2023-04-30T14:24:28.229Z,49.10
2023-04-30T14:26:56.392Z,50.20
2023-04-30T14:29:24.575Z,50.40
2023-04-30T14:31:52.819Z,50.40
2023-04-30T14:34:21.031Z,51.10
2023-04-30T14:36:49.237Z,50.70
2023-04-30T14:39:17.445Z,51.10
2023-04-30T14:41:47.001Z,51.60
2023-04-30T14:44:15.212Z,49.60
2023-04-30T14:46:43.492Z,50.30
2023-04-30T14:49:11.699Z,51.10
2023-04-30T14:51:39.863Z,49.50
2023-04-30T14:54:08.083Z,49.90
2023-04-30T14:56:36.397Z,50.70
2023-04-30T14:59:06.027Z,51.00
2023-04-30T15:01:34.343Z,51.40
2023-04-30T15:04:03.459Z,50.20
2023-04-30T15:06:31.725Z,50.40
2023-04-30T15:08:59.964Z,50.60
2023-04-30T15:11:28.185Z,50.80
2023-04-30T15:13:56.431Z,50.70
2023-04-30T15:16:26.440Z,51.10
2023-04-30T15:18:55.298Z,50.90
2023-04-30T15:21:23.481Z,50.80
2023-04-30T15:23:51.967Z,50.50
2023-04-30T15:26:20.216Z,50.90
2023-04-30T15:28:48.519Z,49.90
2023-04-30T15:31:17.126Z,50.90
2023-04-30T15:33:46.769Z,51.10
2023-04-30T15:36:14.972Z,51.20
2023-04-30T15:38:43.232Z,50.70
2023-04-30T15:41:11.464Z,52.70
2023-04-30T15:43:39.732Z,55.00
2023-04-30T15:46:07.965Z,55.80
2023-04-30T15:48:36.129Z,55.20
2023-04-30T15:51:05.736Z,56.30
2023-04-30T15:53:33.932Z,56.70
2023-04-30T15:56:04.325Z,56.20
2023-04-30T15:58:32.533Z,56.50
2023-04-30T16:01:01.283Z,57.50
2023-04-30T16:03:29.695Z,58.40
2023-04-30T16:05:58.242Z,57.90
2023-04-30T16:08:28.166Z,57.20
2023-04-30T16:10:56.540Z,56.80
2023-04-30T16:13:24.713Z,56.80
2023-04-30T16:15:53.017Z,57.20
2023-04-30T16:18:21.539Z,57.10
2023-04-30T16:20:49.983Z,57.10
2023-04-30T16:23:18.229Z,58.50
2023-04-30T16:25:47.802Z,58.70
2023-04-30T16:28:17.074Z,60.10
2023-04-30T16:30:45.379Z,58.90
2023-04-30T16:33:13.574Z,58.10
2023-04-30T16:35:41.767Z,57.80
2023-04-30T16:38:09.929Z,58.10
2023-04-30T16:40:38.130Z,59.20
2023-04-30T16:43:07.987Z,59.10
2023-04-30T16:45:36.402Z,59.50
2023-04-30T16:48:05.252Z,59.50
2023-04-30T16:50:33.621Z,58.50
2023-04-30T16:53:01.873Z,60.00
2023-04-30T16:55:30.074Z,60.10
2023-04-30T16:57:58.694Z,60.60
2023-04-30T17:00:28.253Z,59.70
2023-04-30T17:02:56.609Z,59.70
2023-04-30T17:05:25.130Z,60.50
2023-04-30T17:07:53.377Z,61.20
2023-04-30T17:10:21.829Z,60.60
2023-04-30T17:12:50.056Z,59.70
2023-04-30T17:15:20.236Z,60.70
2023-04-30T17:17:49.955Z,59.60
2023-04-30T17:20:18.645Z,61.00
2023-04-30T17:22:47.647Z,60.10
2023-04-30T17:25:16.231Z,59.90
2023-04-30T17:27:44.479Z,61.20
2023-04-30T17:30:13.340Z,59.60
2023-04-30T17:32:41.882Z,60.90
2023-04-30T17:35:11.624Z,60.50
2023-04-30T17:37:39.817Z,60.60
2023-04-30T17:40:09.914Z,60.70
2023-04-30T17:42:38.899Z,61.00
2023-04-30T17:45:08.650Z,59.90
2023-04-30T17:47:36.894Z,59.60
2023-04-30T17:50:08.481Z,60.90
2023-04-30T17:52:38.778Z,61.10
2023-04-30T17:55:08.837Z,61.40
2023-04-30T17:57:37.261Z,60.50
2023-04-30T18:00:07.401Z,61.40
2023-04-30T18:02:35.699Z,61.30
2023-04-30T18:05:04.150Z,60.40
2023-04-30T18:07:32.368Z,60.40
2023-04-30T18:10:01.948Z,60.50
2023-04-30T18:12:30.252Z,60.80
2023-04-30T18:15:00.676Z,61.70
2023-04-30T18:17:28.993Z,61.70
2023-04-30T18:19:57.475Z,62.00
2023-04-30T18:22:25.930Z,62.10
2023-04-30T18:24:54.507Z,62.00
2023-04-30T18:27:24.279Z,62.70
2023-04-30T18:29:52.790Z,62.30
2023-04-30T18:32:21.255Z,62.30
2023-04-30T18:34:49.606Z,62.20
2023-04-30T18:37:17.933Z,62.70
2023-04-30T18:39:46.160Z,62.90
2023-04-30T18:42:14.761Z,62.90
2023-04-30T18:44:44.447Z,63.50
2023-04-30T18:47:12.912Z,63.50
2023-04-30T18:49:41.434Z,63.50
2023-04-30T18:52:09.841Z,63.80
2023-04-30T18:54:38.117Z,63.60
2023-04-30T18:57:06.771Z,63.80
2023-04-30T18:59:35.003Z,63.60
2023-04-30T19:02:04.706Z,63.90
2023-04-30T19:04:32.918Z,64.10
2023-04-30T19:07:01.193Z,64.20
2023-04-30T19:09:29.360Z,64.40
2023-04-30T19:11:57.944Z,64.80
2023-04-30T19:14:26.277Z,64.90
2023-04-30T19:16:54.772Z,65.20
2023-04-30T19:19:24.532Z,64.80
2023-04-30T19:21:52.748Z,65.50
2023-04-30T19:24:21.217Z,65.50
2023-04-30T19:26:50.866Z,65.30
2023-04-30T19:29:19.265Z,65.60
2023-04-30T19:31:47.613Z,66.20
2023-04-30T19:34:16.351Z,65.30
2023-04-30T19:36:45.994Z,65.60
2023-04-30T19:39:15.580Z,65.70
2023-04-30T19:41:43.926Z,66.20
2023-04-30T19:44:12.348Z,65.60
2023-04-30T19:46:42.361Z,66.20
2023-04-30T19:49:10.749Z,66.10
2023-04-30T19:51:39.017Z,66.30
2023-04-30T19:54:13.896Z,66.90
2023-04-30T19:56:42.206Z,67.20
2023-04-30T19:59:10.492Z,67.30
2023-04-30T20:01:38.800Z,67.40
2023-04-30T20:04:07.780Z,68.40
2023-04-30T20:06:36.245Z,67.70
2023-04-30T20:09:04.849Z,67.60
2023-04-30T20:11:34.485Z,67.50
2023-04-30T20:14:03.151Z,67.70
2023-04-30T20:16:31.637Z,66.80
2023-04-30T20:18:59.920Z,67.40
2023-04-30T20:21:29.118Z,67.60
2023-04-30T20:23:57.506Z,67.70
2023-04-30T20:26:27.140Z,68.10
2023-04-30T20:28:57.162Z,66.80
2023-04-30T20:31:25.636Z,67.00
2023-04-30T20:33:54.244Z,67.70
2023-04-30T20:36:22.431Z,68.40
2023-04-30T20:38:53.308Z,67.40
2023-04-30T20:41:21.888Z,67.00
2023-04-30T20:43:52.030Z,67.20
2023-04-30T20:46:24.941Z,66.40
2023-04-30T20:48:54.610Z,67.10
2023-04-30T20:51:23.599Z,67.30
2023-04-30T20:53:51.851Z,67.10
2023-04-30T20:56:20.202Z,67.30
2023-04-30T20:58:48.683Z,66.40
2023-04-30T21:01:17.183Z,66.40
2023-04-30T21:03:46.866Z,67.20
2023-04-30T21:06:15.953Z,67.20
2023-04-30T21:08:44.415Z,67.00
2023-04-30T21:11:14.185Z,67.80
2023-04-30T21:13:42.660Z,67.40
2023-04-30T21:16:10.977Z,68.00
2023-04-30T21:18:39.259Z,68.00
2023-04-30T21:21:10.646Z,67.90
2023-04-30T21:23:39.934Z,66.70
2023-04-30T21:26:08.195Z,68.50
2023-04-30T21:28:36.432Z,67.40
2023-04-30T21:31:06.283Z,66.50
2023-04-30T21:33:34.650Z,67.40
2023-04-30T21:36:03.026Z,66.70
2023-04-30T21:38:32.618Z,66.20
2023-04-30T21:41:01.346Z,67.40
2023-04-30T21:43:29.576Z,66.30
2023-04-30T21:46:04.503Z,66.30
2023-04-30T21:48:32.755Z,66.60
2023-04-30T21:51:01.193Z,66.40
2023-04-30T21:53:29.361Z,66.50
2023-04-30T21:55:58.889Z,65.70
2023-04-30T21:58:27.089Z,66.90
2023-04-30T22:00:55.588Z,65.60
2023-04-30T22:03:23.976Z,66.30
2023-04-30T22:05:54.539Z,65.50
2023-04-30T22:08:22.719Z,65.80
2023-04-30T22:10:51.297Z,65.80
2023-04-30T22:13:20.866Z,66.00
2023-04-30T22:15:49.388Z,65.20
2023-04-30T22:18:17.602Z,66.30
2023-04-30T22:20:45.872Z,66.10
2023-04-30T22:23:14.042Z,65.50
2023-04-30T22:25:42.226Z,66.10
2023-04-30T22:28:11.334Z,65.70
2023-04-30T22:30:40.913Z,65.60
2023-04-30T22:33:09.229Z,65.30
2023-04-30T22:35:39.160Z,65.50
2023-04-30T22:38:07.565Z,65.70
2023-04-30T22:40:39.489Z,65.90
2023-04-30T22:43:08.018Z,66.60
2023-04-30T22:45:40.205Z,66.50
2023-04-30T22:48:10.910Z,66.60
2023-04-30T22:50:39.688Z,66.10
2023-04-30T22:53:08.157Z,65.90
2023-04-30T22:55:36.505Z,66.50
2023-04-30T22:58:04.704Z,66.50
2023-04-30T23:00:33.040Z,66.20
2023-04-30T23:03:01.443Z,66.10
2023-04-30T23:05:31.142Z,66.40
2023-04-30T23:07:59.334Z,66.70
2023-04-30T23:10:27.498Z,66.50
2023-04-30T23:12:56.592Z,66.80
2023-04-30T23:15:24.902Z,66.70
2023-04-30T23:17:54.285Z,67.30
2023-04-30T23:20:23.514Z,67.30
2023-04-30T23:22:53.059Z,67.50
2023-04-30T23:25:21.361Z,67.50
2023-04-30T23:27:49.543Z,67.50
2023-04-30T23:30:17.922Z,67.90
2023-04-30T23:32:46.596Z,67.40
2023-04-30T23:35:15.178Z,67.50
2023-04-30T23:37:43.338Z,68.40
2023-04-30T23:40:15.106Z,68.70
2023-04-30T23:42:43.684Z,68.00
2023-04-30T23:45:12.196Z,68.30
2023-04-30T23:47:40.403Z,68.20
2023-04-30T23:50:10.586Z,68.10
2023-04-30T23:52:38.821Z,68.70
2023-04-30T23:55:08.658Z,69.10
2023-04-30T23:57:38.270Z,69.60
